createdAt,value
2023-05-07T00:04:48.033Z,98812.14
2023-05-07T00:15:14.901Z,98817.05
2023-05-07T00:25:40.447Z,98818.90
2023-05-07T00:36:07.429Z,98817.93
2023-05-07T00:46:35.174Z,98822.55
2023-05-07T00:57:01.480Z,98828.73
2023-05-07T01:07:28.217Z,98830.69
2023-05-07T01:17:54.422Z,98835.00
2023-05-07T01:28:20.482Z,98838.29
2023-05-07T01:38:47.052Z,98834.86
2023-05-07T01:49:12.960Z,98836.94
2023-05-07T01:59:38.954Z,98835.25
2023-05-07T02:10:05.158Z,98828.09
2023-05-07T02:20:31.056Z,98836.92
2023-05-07T02:30:56.798Z,98837.80
2023-05-07T02:41:22.908Z,98842.25
2023-05-07T02:51:49.070Z,98844.15
2023-05-07T03:02:14.966Z,98846.14
2023-05-07T03:12:40.956Z,98852.66
2023-05-07T03:23:06.815Z,98861.37
2023-05-07T03:33:35.510Z,98869.75
2023-05-07T03:44:00.821Z,98883.40
2023-05-07T03:54:26.977Z,98889.66
2023-05-07T04:04:54.427Z,98901.05
2023-05-07T04:15:20.236Z,98911.80
2023-05-07T04:25:46.360Z,98924.91
2023-05-07T04:36:12.671Z,98940.04
2023-05-07T04:46:38.660Z,98958.00
2023-05-07T04:57:05.910Z,98978.34
2023-05-07T05:07:31.998Z,98987.96
2023-05-07T05:17:58.228Z,98996.40
2023-05-07T05:28:27.142Z,99007.80
2023-05-07T05:38:52.896Z,99019.65
2023-05-07T05:49:18.508Z,99026.09
2023-05-07T05:59:43.946Z,99030.27
2023-05-07T06:10:11.198Z,99040.16
2023-05-07T06:20:36.829Z,99047.82
2023-05-07T06:31:16.873Z,99056.03
2023-05-07T06:41:42.352Z,99069.94
2023-05-07T06:52:08.884Z,99075.83
2023-05-07T07:02:34.635Z,99085.20
2023-05-07T07:13:00.221Z,99095.08
2023-05-07T07:23:26.156Z,99107.05
2023-05-07T07:33:53.286Z,99117.79
2023-05-07T07:44:19.037Z,99128.31
2023-05-07T07:54:45.100Z,99135.73
2023-05-07T08:05:11.765Z,99147.56
2023-05-07T08:15:38.009Z,99151.52
2023-05-07T08:26:03.787Z,99158.66
2023-05-07T08:36:29.969Z,99163.34
2023-05-07T08:46:58.050Z,99180.76
2023-05-07T08:57:25.446Z,99189.27
2023-05-07T09:07:53.289Z,99199.67
2023-05-07T09:18:20.210Z,99199.86
2023-05-07T09:28:47.642Z,99203.55
2023-05-07T09:39:14.205Z,99219.06
2023-05-07T09:49:43.464Z,99227.42
2023-05-07T10:00:11.793Z,99236.63
2023-05-07T10:10:38.079Z,99241.43
2023-05-07T10:21:09.236Z,99256.13
2023-05-07T10:31:55.561Z,99268.58
2023-05-07T10:42:21.331Z,99283.94
2023-05-07T10:52:47.278Z,99282.46
2023-05-07T11:03:13.248Z,99282.94
2023-05-07T11:13:50.446Z,99294.14
2023-05-07T11:24:17.801Z,99298.52
2023-05-07T11:34:43.368Z,99304.42
2023-05-07T11:45:11.384Z,99317.66
2023-05-07T11:55:37.863Z,99317.59
2023-05-07T12:06:04.805Z,99322.65
2023-05-07T12:16:31.152Z,99331.25
2023-05-07T12:26:56.790Z,99340.57
2023-05-07T12:37:28.977Z,99350.89
2023-05-07T12:47:57.185Z,99352.72
2023-05-07T12:58:26.464Z,99357.05
2023-05-07T13:08:51.876Z,99362.33
2023-05-07T13:19:18.608Z,99365.14
2023-05-07T13:29:44.326Z,99373.30
2023-05-07T13:40:12.354Z,99366.59
2023-05-07T13:50:37.970Z,99366.45
2023-05-07T14:01:03.584Z,99366.93
2023-05-07T14:11:29.136Z,99374.11
2023-05-07T14:21:55.302Z,99382.08
2023-05-07T14:32:22.248Z,99391.08
2023-05-07T14:42:47.982Z,99401.02
2023-05-07T14:53:14.134Z,99413.81
2023-05-07T15:03:40.209Z,99434.70
2023-05-07T15:14:05.863Z,99431.13
2023-05-07T15:24:31.982Z,99430.33
2023-05-07T15:34:58.096Z,99430.23
2023-05-07T15:45:24.308Z,99435.42
2023-05-07T15:55:49.970Z,99449.04
2023-05-07T16:06:16.118Z,99448.33
2023-05-07T16:16:41.782Z,99447.61
2023-05-07T16:27:08.008Z,99462.67
2023-05-07T16:37:34.896Z,99456.80
2023-05-07T16:48:00.816Z,99455.98
2023-05-07T16:58:27.385Z,99458.60
2023-05-07T17:08:53.623Z,99460.55
2023-05-07T17:19:19.417Z,99468.04
2023-05-07T17:29:45.301Z,99485.52
2023-05-07T17:40:12.877Z,99492.13
2023-05-07T17:50:39.092Z,99503.11
2023-05-07T18:01:04.943Z,99503.14
2023-05-07T18:11:32.588Z,99512.80
2023-05-07T18:21:58.405Z,99511.64
2023-05-07T18:32:24.500Z,99524.30
2023-05-07T18:42:50.651Z,99527.00
2023-05-07T18:53:16.696Z,99532.98
2023-05-07T19:03:42.703Z,99537.65
2023-05-07T19:14:08.419Z,99544.73
2023-05-07T19:24:34.715Z,99548.52
2023-05-07T19:35:00.590Z,99556.55
2023-05-07T19:45:27.100Z,99563.45
2023-05-07T19:56:01.136Z,99578.19
2023-05-07T20:06:27.139Z,99574.30
2023-05-07T20:16:53.026Z,99578.15
2023-05-07T20:27:22.192Z,99577.64
2023-05-07T20:37:47.759Z,99574.48
2023-05-07T20:48:14.635Z,99588.38
2023-05-07T20:58:40.581Z,99599.39
2023-05-07T21:09:06.926Z,99606.29
2023-05-07T21:19:32.468Z,99614.45
2023-05-07T21:30:04.904Z,99611.58
2023-05-07T21:40:31.875Z,99612.14
2023-05-07T21:51:04.306Z,99613.27
2023-05-07T22:01:30.362Z,99620.56
2023-05-07T22:11:56.900Z,99620.81
2023-05-07T22:22:22.777Z,99622.59
2023-05-07T22:32:48.776Z,99625.25
2023-05-07T22:43:14.719Z,99613.95
2023-05-07T22:53:40.876Z,99608.61
2023-05-07T23:04:06.718Z,99600.98
2023-05-07T23:14:32.712Z,99609.05
2023-05-07T23:24:58.553Z,99603.98
2023-05-07T23:35:24.490Z,99603.94
2023-05-07T23:45:50.282Z,99602.14
2023-05-07T23:56:16.341Z,99598.52
